Ivanovo, Russia
Current Conditions -  °F | °C
As of 3:00 PM on Friday 24 Oct 2014 (Local Time) from UUDL Reporting Station
Clear Clear  
Wind Chill: 11°   Ceiling: Unl
Heat Index: 21°   Visibility: 6mi
Dew Point:   Wind: 9mph
Humidity: 58%   Direction: 320°NW
Pressure: 30.56"   Gusts: NA
Location:  57.01°N, 40.99°E
Report Text: UUDL 241200Z 32004MPS CAVOK M06/M13 Q1035 NOSIG RMK QFE76923850347
Loading
Personal Weather Stations






























Interactive Weather Map
Tropical Storm Tracking
New forecast layout! Learn more

10-Day Weather Forecast

Advertisements
Track Severe Weather on mobile